Terminal Aerodrome Forecast
Issued by NWS Wilmington, OH

Current Version | Previous Version | Graphics & Text | Print | Product List | Glossary On
Versions: 1 2 3 4 5 6 7 8 9 10 11 12 13 14 15 16 17 18 19 20 21 22 23 24
000
FTUS41 KILN 030536
TAFCVG
TAF
KCVG 030536Z 0306/0412 VRB03KT P6SM SCT250
     FM030900 VRB02KT 4SM BR SCT120
     FM031300 28005KT P6SM SCT040
     FM031800 29008KT P6SM BKN040
     FM032000 31008KT P6SM VCTS BKN035CB
     FM040100 VRB03KT P6SM SCT250
     FM040800 VRB02KT P6SM VCTS SCT040CB BKN130=

USA.gov is the U.S. government's official web portal to all federal, state and local government web resources and services.